sensor_id;sensor_type;location;lat;lon;timestamp;P1;durP1;ratioP1;P2;durP2;ratioP2
26106;SDS011;13866;50.748;12.630;2022-09-20T00:01:06;1.67;;;1.67;;
26106;SDS011;13866;50.748;12.630;2022-09-20T00:03:35;2.03;;;2.03;;
26106;SDS011;13866;50.748;12.630;2022-09-20T00:06:06;2.80;;;1.97;;
26106;SDS011;13866;50.748;12.630;2022-09-20T00:08:34;4.27;;;1.80;;
26106;SDS011;13866;50.748;12.630;2022-09-20T00:11:01;2.13;;;2.03;;
26106;SDS011;13866;50.748;12.630;2022-09-20T00:13:31;4.73;;;2.13;;
26106;SDS011;13866;50.748;12.630;2022-09-20T00:15:57;4.57;;;2.53;;
26106;SDS011;13866;50.748;12.630;2022-09-20T00:18:24;3.33;;;1.90;;
26106;SDS011;13866;50.748;12.630;2022-09-20T00:20:50;3.73;;;2.60;;
26106;SDS011;13866;50.748;12.630;2022-09-20T00:23:17;1.80;;;1.67;;
26106;SDS011;13866;50.748;12.630;2022-09-20T00:25:43;2.50;;;2.27;;
26106;SDS011;13866;50.748;12.630;2022-09-20T00:28:10;1.93;;;1.73;;
26106;SDS011;13866;50.748;12.630;2022-09-20T00:30:36;2.27;;;2.03;;
26106;SDS011;13866;50.748;12.630;2022-09-20T00:33:02;3.00;;;2.47;;
26106;SDS011;13866;50.748;12.630;2022-09-20T00:35:28;2.93;;;2.17;;
26106;SDS011;13866;50.748;12.630;2022-09-20T00:37:54;5.70;;;2.50;;
26106;SDS011;13866;50.748;12.630;2022-09-20T00:40:19;3.63;;;2.43;;
26106;SDS011;13866;50.748;12.630;2022-09-20T00:42:46;4.37;;;2.30;;
26106;SDS011;13866;50.748;12.630;2022-09-20T00:45:18;1.87;;;1.77;;
26106;SDS011;13866;50.748;12.630;2022-09-20T00:48:34;6.33;;;2.70;;
26106;SDS011;13866;50.748;12.630;2022-09-20T00:50:49;4.00;;;3.30;;
26106;SDS011;13866;50.748;12.630;2022-09-20T00:53:29;6.77;;;3.10;;
26106;SDS011;13866;50.748;12.630;2022-09-20T00:56:02;14.33;;;2.40;;
26106;SDS011;13866;50.748;12.630;2022-09-20T00:58:35;5.07;;;2.77;;
26106;SDS011;13866;50.748;12.630;2022-09-20T01:01:05;5.07;;;2.07;;
26106;SDS011;13866;50.748;12.630;2022-09-20T01:03:31;4.00;;;2.40;;
26106;SDS011;13866;50.748;12.630;2022-09-20T01:06:00;4.13;;;3.00;;
26106;SDS011;13866;50.748;12.630;2022-09-20T01:08:29;3.53;;;3.43;;
26106;SDS011;13866;50.748;12.630;2022-09-20T01:10:56;7.27;;;2.33;;
26106;SDS011;13866;50.748;12.630;2022-09-20T01:13:22;8.67;;;2.60;;
26106;SDS011;13866;50.748;12.630;2022-09-20T01:15:47;3.03;;;2.40;;
26106;SDS011;13866;50.748;12.630;2022-09-20T01:18:15;2.07;;;1.97;;
26106;SDS011;13866;50.748;12.630;2022-09-20T01:20:42;3.40;;;2.10;;
26106;SDS011;13866;50.748;12.630;2022-09-20T01:26:11;7.43;;;2.00;;
26106;SDS011;13866;50.748;12.630;2022-09-20T01:28:56;6.53;;;2.40;;
26106;SDS011;13866;50.748;12.630;2022-09-20T01:31:32;4.00;;;2.23;;
26106;SDS011;13866;50.748;12.630;2022-09-20T01:34:05;5.00;;;2.40;;
26106;SDS011;13866;50.748;12.630;2022-09-20T01:36:41;2.67;;;1.97;;
26106;SDS011;13866;50.748;12.630;2022-09-20T01:39:26;5.07;;;2.63;;
26106;SDS011;13866;50.748;12.630;2022-09-20T01:41:58;6.33;;;2.00;;
26106;SDS011;13866;50.748;12.630;2022-09-20T01:44:39;6.50;;;2.70;;
26106;SDS011;13866;50.748;12.630;2022-09-20T01:47:31;3.03;;;1.57;;
26106;SDS011;13866;50.748;12.630;2022-09-20T01:50:31;4.60;;;2.00;;
26106;SDS011;13866;50.748;12.630;2022-09-20T01:59:16;3.97;;;2.10;;
26106;SDS011;13866;50.748;12.630;2022-09-20T02:02:06;1.80;;;1.70;;
26106;SDS011;13866;50.748;12.630;2022-09-20T02:04:57;3.53;;;1.40;;
26106;SDS011;13866;50.748;12.630;2022-09-20T02:13:01;8.70;;;1.60;;
26106;SDS011;13866;50.748;12.630;2022-09-20T02:18:43;7.00;;;2.03;;
26106;SDS011;13866;50.748;12.630;2022-09-20T02:21:37;1.93;;;1.47;;
26106;SDS011;13866;50.748;12.630;2022-09-20T02:27:08;3.53;;;1.63;;
26106;SDS011;13866;50.748;12.630;2022-09-20T02:30:03;3.53;;;1.93;;
26106;SDS011;13866;50.748;12.630;2022-09-20T02:35:26;6.90;;;1.63;;
26106;SDS011;13866;50.748;12.630;2022-09-20T02:38:28;1.93;;;1.63;;
26106;SDS011;13866;50.748;12.630;2022-09-20T02:41:16;4.97;;;1.77;;
26106;SDS011;13866;50.748;12.630;2022-09-20T02:44:07;1.87;;;1.57;;
26106;SDS011;13866;50.748;12.630;2022-09-20T02:49:46;1.47;;;1.47;;
26106;SDS011;13866;50.748;12.630;2022-09-20T02:52:19;3.53;;;1.80;;
26106;SDS011;13866;50.748;12.630;2022-09-20T02:55:01;5.57;;;1.77;;
26106;SDS011;13866;50.748;12.630;2022-09-20T03:00:52;3.93;;;1.80;;
26106;SDS011;13866;50.748;12.630;2022-09-20T03:06:49;2.40;;;1.53;;
26106;SDS011;13866;50.748;12.630;2022-09-20T03:15:14;3.23;;;1.23;;
26106;SDS011;13866;50.748;12.630;2022-09-20T03:17:51;6.10;;;2.20;;
26106;SDS011;13866;50.748;12.630;2022-09-20T03:31:23;2.10;;;1.97;;
26106;SDS011;13866;50.748;12.630;2022-09-20T03:36:56;6.67;;;1.70;;
26106;SDS011;13866;50.748;12.630;2022-09-20T03:39:44;2.83;;;2.00;;
26106;SDS011;13866;50.748;12.630;2022-09-20T03:42:23;3.17;;;1.63;;
26106;SDS011;13866;50.748;12.630;2022-09-20T03:47:42;5.03;;;1.80;;
26106;SDS011;13866;50.748;12.630;2022-09-20T03:53:24;4.63;;;2.07;;
26106;SDS011;13866;50.748;12.630;2022-09-20T04:02:07;12.77;;;2.30;;
26106;SDS011;13866;50.748;12.630;2022-09-20T04:04:57;11.77;;;2.73;;
26106;SDS011;13866;50.748;12.630;2022-09-20T04:07:30;7.03;;;3.20;;
26106;SDS011;13866;50.748;12.630;2022-09-20T04:12:57;8.63;;;2.50;;
26106;SDS011;13866;50.748;12.630;2022-09-20T04:15:56;4.23;;;2.80;;
26106;SDS011;13866;50.748;12.630;2022-09-20T04:18:58;10.77;;;2.97;;
26106;SDS011;13866;50.748;12.630;2022-09-20T04:21:52;6.57;;;2.93;;
26106;SDS011;13866;50.748;12.630;2022-09-20T04:24:36;13.17;;;3.30;;
26106;SDS011;13866;50.748;12.630;2022-09-20T04:27:16;3.07;;;2.87;;
26106;SDS011;13866;50.748;12.630;2022-09-20T04:32:34;11.63;;;3.20;;
26106;SDS011;13866;50.748;12.630;2022-09-20T04:38:18;3.30;;;2.90;;
26106;SDS011;13866;50.748;12.630;2022-09-20T04:53:01;11.83;;;3.90;;
26106;SDS011;13866;50.748;12.630;2022-09-20T04:58:31;10.17;;;2.93;;
26106;SDS011;13866;50.748;12.630;2022-09-20T05:04:01;19.73;;;4.40;;
26106;SDS011;13866;50.748;12.630;2022-09-20T05:09:52;5.90;;;3.13;;
26106;SDS011;13866;50.748;12.630;2022-09-20T05:12:43;13.67;;;3.13;;
26106;SDS011;13866;50.748;12.630;2022-09-20T05:21:22;6.13;;;4.20;;
26106;SDS011;13866;50.748;12.630;2022-09-20T05:24:16;10.13;;;4.47;;
26106;SDS011;13866;50.748;12.630;2022-09-20T05:26:57;6.20;;;3.97;;
26106;SDS011;13866;50.748;12.630;2022-09-20T05:30:00;11.23;;;3.80;;
26106;SDS011;13866;50.748;12.630;2022-09-20T05:41:11;4.50;;;4.10;;
26106;SDS011;13866;50.748;12.630;2022-09-20T05:44:07;6.13;;;3.97;;
26106;SDS011;13866;50.748;12.630;2022-09-20T05:47:02;6.70;;;3.23;;
26106;SDS011;13866;50.748;12.630;2022-09-20T05:52:53;6.90;;;4.70;;
26106;SDS011;13866;50.748;12.630;2022-09-20T05:55:34;14.30;;;4.03;;
26106;SDS011;13866;50.748;12.630;2022-09-20T05:58:27;4.43;;;4.00;;
26106;SDS011;13866;50.748;12.630;2022-09-20T06:01:54;10.93;;;4.83;;
26106;SDS011;13866;50.748;12.630;2022-09-20T06:06:51;9.00;;;3.70;;
26106;SDS011;13866;50.748;12.630;2022-09-20T06:09:44;7.80;;;3.93;;
26106;SDS011;13866;50.748;12.630;2022-09-20T06:12:33;7.63;;;3.77;;
26106;SDS011;13866;50.748;12.630;2022-09-20T06:15:25;9.17;;;4.70;;
26106;SDS011;13866;50.748;12.630;2022-09-20T06:18:12;6.77;;;4.30;;
26106;SDS011;13866;50.748;12.630;2022-09-20T06:21:08;5.50;;;4.13;;
26106;SDS011;13866;50.748;12.630;2022-09-20T06:23:39;20.23;;;5.20;;
26106;SDS011;13866;50.748;12.630;2022-09-20T06:26:15;11.47;;;4.30;;
26106;SDS011;13866;50.748;12.630;2022-09-20T06:28:45;8.03;;;4.77;;
26106;SDS011;13866;50.748;12.630;2022-09-20T06:31:14;12.93;;;5.13;;
26106;SDS011;13866;50.748;12.630;2022-09-20T06:33:43;12.93;;;4.30;;
26106;SDS011;13866;50.748;12.630;2022-09-20T06:36:28;7.47;;;4.60;;
26106;SDS011;13866;50.748;12.630;2022-09-20T06:42:27;6.93;;;3.70;;
26106;SDS011;13866;50.748;12.630;2022-09-20T06:44:53;8.53;;;4.20;;
26106;SDS011;13866;50.748;12.630;2022-09-20T06:47:19;10.63;;;4.63;;
26106;SDS011;13866;50.748;12.630;2022-09-20T06:49:47;8.93;;;4.70;;
26106;SDS011;13866;50.748;12.630;2022-09-20T06:52:14;5.47;;;3.70;;
26106;SDS011;13866;50.748;12.630;2022-09-20T06:54:42;9.43;;;4.43;;
26106;SDS011;13866;50.748;12.630;2022-09-20T06:57:09;6.93;;;4.57;;
26106;SDS011;13866;50.748;12.630;2022-09-20T06:59:38;14.20;;;4.33;;
26106;SDS011;13866;50.748;12.630;2022-09-20T07:02:03;7.47;;;4.17;;
26106;SDS011;13866;50.748;12.630;2022-09-20T07:04:29;15.40;;;3.47;;
26106;SDS011;13866;50.748;12.630;2022-09-20T07:06:58;5.97;;;3.83;;
26106;SDS011;13866;50.748;12.630;2022-09-20T07:09:25;6.07;;;4.63;;
26106;SDS011;13866;50.748;12.630;2022-09-20T07:11:50;7.20;;;4.97;;
26106;SDS011;13866;50.748;12.630;2022-09-20T07:14:16;4.43;;;3.90;;
26106;SDS011;13866;50.748;12.630;2022-09-20T07:16:43;11.30;;;4.57;;
26106;SDS011;13866;50.748;12.630;2022-09-20T07:19:08;14.57;;;3.97;;
26106;SDS011;13866;50.748;12.630;2022-09-20T07:21:34;8.60;;;5.00;;
26106;SDS011;13866;50.748;12.630;2022-09-20T07:23:59;5.57;;;3.67;;
26106;SDS011;13866;50.748;12.630;2022-09-20T07:26:27;6.67;;;4.37;;
26106;SDS011;13866;50.748;12.630;2022-09-20T07:28:56;16.90;;;3.67;;
26106;SDS011;13866;50.748;12.630;2022-09-20T07:31:23;8.53;;;4.23;;
26106;SDS011;13866;50.748;12.630;2022-09-20T07:33:50;9.77;;;2.80;;
26106;SDS011;13866;50.748;12.630;2022-09-20T07:36:16;8.27;;;2.67;;
26106;SDS011;13866;50.748;12.630;2022-09-20T07:38:42;8.43;;;3.90;;
26106;SDS011;13866;50.748;12.630;2022-09-20T07:41:10;5.80;;;3.00;;
26106;SDS011;13866;50.748;12.630;2022-09-20T07:43:36;7.37;;;3.63;;
26106;SDS011;13866;50.748;12.630;2022-09-20T07:46:02;13.53;;;3.40;;
26106;SDS011;13866;50.748;12.630;2022-09-20T07:48:29;8.67;;;3.77;;
26106;SDS011;13866;50.748;12.630;2022-09-20T07:50:57;8.23;;;2.90;;
26106;SDS011;13866;50.748;12.630;2022-09-20T07:53:26;17.03;;;4.23;;
26106;SDS011;13866;50.748;12.630;2022-09-20T07:56:05;9.30;;;3.97;;
26106;SDS011;13866;50.748;12.630;2022-09-20T07:58:34;6.33;;;3.17;;
26106;SDS011;13866;50.748;12.630;2022-09-20T08:01:01;3.30;;;2.97;;
26106;SDS011;13866;50.748;12.630;2022-09-20T08:03:32;7.17;;;3.73;;
26106;SDS011;13866;50.748;12.630;2022-09-20T08:05:59;10.73;;;3.87;;
26106;SDS011;13866;50.748;12.630;2022-09-20T08:08:25;11.10;;;4.10;;
26106;SDS011;13866;50.748;12.630;2022-09-20T08:10:53;9.00;;;4.93;;
26106;SDS011;13866;50.748;12.630;2022-09-20T08:13:26;4.90;;;4.40;;
26106;SDS011;13866;50.748;12.630;2022-09-20T08:15:59;15.07;;;5.13;;
26106;SDS011;13866;50.748;12.630;2022-09-20T08:18:26;5.13;;;3.80;;
26106;SDS011;13866;50.748;12.630;2022-09-20T08:20:52;5.27;;;4.27;;
26106;SDS011;13866;50.748;12.630;2022-09-20T08:23:18;7.23;;;4.63;;
26106;SDS011;13866;50.748;12.630;2022-09-20T08:25:43;10.03;;;4.60;;
26106;SDS011;13866;50.748;12.630;2022-09-20T08:28:09;8.93;;;4.97;;
26106;SDS011;13866;50.748;12.630;2022-09-20T08:30:34;4.63;;;4.07;;
26106;SDS011;13866;50.748;12.630;2022-09-20T08:33:02;7.13;;;5.67;;
26106;SDS011;13866;50.748;12.630;2022-09-20T08:35:27;13.70;;;5.40;;
26106;SDS011;13866;50.748;12.630;2022-09-20T08:37:54;6.30;;;5.87;;
26106;SDS011;13866;50.748;12.630;2022-09-20T08:40:19;7.10;;;5.10;;
26106;SDS011;13866;50.748;12.630;2022-09-20T08:42:47;5.33;;;5.00;;
26106;SDS011;13866;50.748;12.630;2022-09-20T08:45:14;10.20;;;6.83;;
26106;SDS011;13866;50.748;12.630;2022-09-20T08:47:54;7.37;;;6.40;;
26106;SDS011;13866;50.748;12.630;2022-09-20T08:50:23;6.40;;;5.80;;
26106;SDS011;13866;50.748;12.630;2022-09-20T08:52:51;10.13;;;6.23;;
26106;SDS011;13866;50.748;12.630;2022-09-20T08:55:24;8.87;;;7.20;;
26106;SDS011;13866;50.748;12.630;2022-09-20T08:57:57;10.07;;;6.57;;
26106;SDS011;13866;50.748;12.630;2022-09-20T09:00:25;16.53;;;7.30;;
26106;SDS011;13866;50.748;12.630;2022-09-20T09:02:55;17.70;;;7.60;;
26106;SDS011;13866;50.748;12.630;2022-09-20T09:05:29;15.60;;;6.53;;
26106;SDS011;13866;50.748;12.630;2022-09-20T09:08:02;8.70;;;7.17;;
26106;SDS011;13866;50.748;12.630;2022-09-20T09:10:35;17.03;;;7.33;;
26106;SDS011;13866;50.748;12.630;2022-09-20T09:13:03;12.60;;;8.00;;
26106;SDS011;13866;50.748;12.630;2022-09-20T09:15:31;7.93;;;7.33;;
26106;SDS011;13866;50.748;12.630;2022-09-20T09:17:58;7.57;;;6.90;;
26106;SDS011;13866;50.748;12.630;2022-09-20T09:20:24;8.37;;;6.77;;
26106;SDS011;13866;50.748;12.630;2022-09-20T09:22:57;20.43;;;7.20;;
26106;SDS011;13866;50.748;12.630;2022-09-20T09:25:36;30.20;;;8.83;;
26106;SDS011;13866;50.748;12.630;2022-09-20T09:35:59;6.10;;;5.27;;
26106;SDS011;13866;50.748;12.630;2022-09-20T09:38:29;9.07;;;5.67;;
26106;SDS011;13866;50.748;12.630;2022-09-20T09:40:57;6.17;;;5.30;;
26106;SDS011;13866;50.748;12.630;2022-09-20T09:44:00;10.70;;;5.40;;
26106;SDS011;13866;50.748;12.630;2022-09-20T09:46:46;15.07;;;6.90;;
26106;SDS011;13866;50.748;12.630;2022-09-20T09:49:17;6.70;;;6.20;;
26106;SDS011;13866;50.748;12.630;2022-09-20T09:54:19;12.37;;;5.83;;
26106;SDS011;13866;50.748;12.630;2022-09-20T09:56:53;8.37;;;6.23;;
26106;SDS011;13866;50.748;12.630;2022-09-20T10:13:57;14.87;;;6.27;;
26106;SDS011;13866;50.748;12.630;2022-09-20T10:16:02;19.40;;;7.40;;
26106;SDS011;13866;50.748;12.630;2022-09-20T10:19:08;8.73;;;8.17;;
26106;SDS011;13866;50.748;12.630;2022-09-20T10:21:48;21.53;;;8.20;;
26106;SDS011;13866;50.748;12.630;2022-09-20T10:24:39;11.70;;;7.40;;
26106;SDS011;13866;50.748;12.630;2022-09-20T10:27:11;9.10;;;8.40;;
26106;SDS011;13866;50.748;12.630;2022-09-20T10:35:28;10.13;;;8.90;;
26106;SDS011;13866;50.748;12.630;2022-09-20T10:38:25;9.70;;;8.10;;
26106;SDS011;13866;50.748;12.630;2022-09-20T10:41:02;14.07;;;9.50;;
26106;SDS011;13866;50.748;12.630;2022-09-20T10:46:44;10.50;;;7.07;;
26106;SDS011;13866;50.748;12.630;2022-09-20T10:49:33;6.53;;;5.97;;
26106;SDS011;13866;50.748;12.630;2022-09-20T10:55:18;8.43;;;6.23;;
26106;SDS011;13866;50.748;12.630;2022-09-20T10:58:23;6.63;;;5.87;;
26106;SDS011;13866;50.748;12.630;2022-09-20T11:01:02;6.67;;;6.07;;
26106;SDS011;13866;50.748;12.630;2022-09-20T11:09:01;9.23;;;7.23;;
26106;SDS011;13866;50.748;12.630;2022-09-20T11:11:51;8.70;;;8.10;;
26106;SDS011;13866;50.748;12.630;2022-09-20T11:14:25;7.50;;;6.90;;
26106;SDS011;13866;50.748;12.630;2022-09-20T11:19:39;14.07;;;7.37;;
26106;SDS011;13866;50.748;12.630;2022-09-20T11:22:22;11.80;;;7.63;;
26106;SDS011;13866;50.748;12.630;2022-09-20T11:24:59;8.30;;;7.00;;
26106;SDS011;13866;50.748;12.630;2022-09-20T11:27:48;7.40;;;6.67;;
26106;SDS011;13866;50.748;12.630;2022-09-20T11:35:39;6.30;;;5.83;;
26106;SDS011;13866;50.748;12.630;2022-09-20T11:41:03;6.27;;;5.90;;
26106;SDS011;13866;50.748;12.630;2022-09-20T11:43:37;9.27;;;5.77;;
26106;SDS011;13866;50.748;12.630;2022-09-20T11:46:06;5.87;;;5.50;;
26106;SDS011;13866;50.748;12.630;2022-09-20T11:48:47;6.73;;;6.20;;
26106;SDS011;13866;50.748;12.630;2022-09-20T11:51:33;5.33;;;5.13;;
26106;SDS011;13866;50.748;12.630;2022-09-20T11:54:31;5.10;;;4.70;;
26106;SDS011;13866;50.748;12.630;2022-09-20T11:57:03;10.00;;;5.10;;
26106;SDS011;13866;50.748;12.630;2022-09-20T11:59:32;3.30;;;3.10;;
26106;SDS011;13866;50.748;12.630;2022-09-20T12:02:01;5.70;;;2.90;;
26106;SDS011;13866;50.748;12.630;2022-09-20T12:04:33;2.23;;;2.23;;
26106;SDS011;13866;50.748;12.630;2022-09-20T12:09:28;3.30;;;3.00;;
26106;SDS011;13866;50.748;12.630;2022-09-20T12:11:56;2.20;;;2.20;;
26106;SDS011;13866;50.748;12.630;2022-09-20T12:14:27;3.40;;;3.10;;
26106;SDS011;13866;50.748;12.630;2022-09-20T12:16:55;2.90;;;2.10;;
26106;SDS011;13866;50.748;12.630;2022-09-20T12:24:23;2.97;;;2.87;;
26106;SDS011;13866;50.748;12.630;2022-09-20T12:26:50;3.87;;;3.63;;
26106;SDS011;13866;50.748;12.630;2022-09-20T12:31:54;4.60;;;4.37;;
26106;SDS011;13866;50.748;12.630;2022-09-20T12:39:21;2.30;;;1.30;;
26106;SDS011;13866;50.748;12.630;2022-09-20T12:41:59;2.93;;;1.87;;
26106;SDS011;13866;50.748;12.630;2022-09-20T12:44:29;2.30;;;2.27;;
26106;SDS011;13866;50.748;12.630;2022-09-20T12:52:34;3.23;;;2.80;;
26106;SDS011;13866;50.748;12.630;2022-09-20T12:57:55;3.43;;;3.30;;
26106;SDS011;13866;50.748;12.630;2022-09-20T13:00:50;3.20;;;2.83;;
26106;SDS011;13866;50.748;12.630;2022-09-20T13:03:38;3.83;;;3.63;;
26106;SDS011;13866;50.748;12.630;2022-09-20T13:11:15;3.47;;;3.30;;
26106;SDS011;13866;50.748;12.630;2022-09-20T13:13:50;2.87;;;2.70;;
26106;SDS011;13866;50.748;12.630;2022-09-20T13:19:01;2.23;;;2.13;;
26106;SDS011;13866;50.748;12.630;2022-09-20T13:21:37;8.20;;;1.70;;
26106;SDS011;13866;50.748;12.630;2022-09-20T13:24:04;2.20;;;2.00;;
26106;SDS011;13866;50.748;12.630;2022-09-20T13:26:33;1.67;;;1.67;;
26106;SDS011;13866;50.748;12.630;2022-09-20T13:29:03;1.57;;;1.47;;
26106;SDS011;13866;50.748;12.630;2022-09-20T13:31:33;1.80;;;1.70;;
26106;SDS011;13866;50.748;12.630;2022-09-20T13:34:13;2.83;;;2.43;;
26106;SDS011;13866;50.748;12.630;2022-09-20T13:36:42;4.27;;;2.17;;
26106;SDS011;13866;50.748;12.630;2022-09-20T13:39:18;3.33;;;2.23;;
26106;SDS011;13866;50.748;12.630;2022-09-20T13:41:48;4.40;;;2.33;;
26106;SDS011;13866;50.748;12.630;2022-09-20T13:44:15;2.73;;;2.10;;
26106;SDS011;13866;50.748;12.630;2022-09-20T13:46:42;1.90;;;1.90;;
26106;SDS011;13866;50.748;12.630;2022-09-20T13:49:11;2.00;;;1.90;;
26106;SDS011;13866;50.748;12.630;2022-09-20T13:51:46;3.03;;;2.50;;
26106;SDS011;13866;50.748;12.630;2022-09-20T13:54:31;2.57;;;1.93;;
26106;SDS011;13866;50.748;12.630;2022-09-20T13:56:58;2.43;;;2.33;;
26106;SDS011;13866;50.748;12.630;2022-09-20T14:02:00;4.50;;;2.10;;
26106;SDS011;13866;50.748;12.630;2022-09-20T14:04:27;1.70;;;1.63;;
26106;SDS011;13866;50.748;12.630;2022-09-20T14:06:55;2.23;;;1.67;;
26106;SDS011;13866;50.748;12.630;2022-09-20T14:09:33;2.43;;;1.63;;
26106;SDS011;13866;50.748;12.630;2022-09-20T14:12:02;1.80;;;1.70;;
26106;SDS011;13866;50.748;12.630;2022-09-20T14:14:29;1.90;;;1.90;;
26106;SDS011;13866;50.748;12.630;2022-09-20T14:16:57;1.33;;;1.33;;
26106;SDS011;13866;50.748;12.630;2022-09-20T14:19:27;2.07;;;1.30;;
26106;SDS011;13866;50.748;12.630;2022-09-20T14:21:55;3.03;;;2.17;;
26106;SDS011;13866;50.748;12.630;2022-09-20T14:24:24;1.40;;;1.40;;
26106;SDS011;13866;50.748;12.630;2022-09-20T14:27:03;5.00;;;1.43;;
26106;SDS011;13866;50.748;12.630;2022-09-20T14:29:39;5.50;;;1.80;;
26106;SDS011;13866;50.748;12.630;2022-09-20T14:34:37;5.23;;;2.30;;
26106;SDS011;13866;50.748;12.630;2022-09-20T14:37:17;3.37;;;1.63;;
26106;SDS011;13866;50.748;12.630;2022-09-20T14:39:49;1.73;;;1.57;;
26106;SDS011;13866;50.748;12.630;2022-09-20T14:42:28;1.60;;;1.50;;
26106;SDS011;13866;50.748;12.630;2022-09-20T14:44:57;2.60;;;2.50;;
26106;SDS011;13866;50.748;12.630;2022-09-20T14:47:27;4.90;;;2.07;;
26106;SDS011;13866;50.748;12.630;2022-09-20T14:50:01;2.60;;;2.40;;
26106;SDS011;13866;50.748;12.630;2022-09-20T14:55:00;2.43;;;1.90;;
26106;SDS011;13866;50.748;12.630;2022-09-20T14:57:34;2.73;;;2.00;;
26106;SDS011;13866;50.748;12.630;2022-09-20T15:00:04;1.67;;;1.60;;
26106;SDS011;13866;50.748;12.630;2022-09-20T15:02:33;2.13;;;2.03;;
26106;SDS011;13866;50.748;12.630;2022-09-20T15:05:00;2.20;;;1.80;;
26106;SDS011;13866;50.748;12.630;2022-09-20T15:07:26;2.70;;;2.20;;
26106;SDS011;13866;50.748;12.630;2022-09-20T15:09:51;2.30;;;2.10;;
26106;SDS011;13866;50.748;12.630;2022-09-20T15:12:18;7.60;;;2.03;;
26106;SDS011;13866;50.748;12.630;2022-09-20T15:14:45;1.73;;;1.63;;
26106;SDS011;13866;50.748;12.630;2022-09-20T15:19:42;1.47;;;1.47;;
26106;SDS011;13866;50.748;12.630;2022-09-20T15:22:08;2.30;;;2.20;;
26106;SDS011;13866;50.748;12.630;2022-09-20T15:24:35;2.73;;;2.60;;
26106;SDS011;13866;50.748;12.630;2022-09-20T15:27:01;4.27;;;2.27;;
26106;SDS011;13866;50.748;12.630;2022-09-20T15:29:26;1.60;;;1.60;;
26106;SDS011;13866;50.748;12.630;2022-09-20T15:31:52;2.47;;;2.37;;
26106;SDS011;13866;50.748;12.630;2022-09-20T15:34:17;2.90;;;2.80;;
26106;SDS011;13866;50.748;12.630;2022-09-20T15:36:43;2.73;;;2.63;;
26106;SDS011;13866;50.748;12.630;2022-09-20T15:39:09;2.77;;;2.57;;
26106;SDS011;13866;50.748;12.630;2022-09-20T15:41:36;2.80;;;2.70;;
26106;SDS011;13866;50.748;12.630;2022-09-20T15:44:02;3.40;;;2.20;;
26106;SDS011;13866;50.748;12.630;2022-09-20T15:46:29;3.13;;;2.93;;
26106;SDS011;13866;50.748;12.630;2022-09-20T15:48:55;3.40;;;3.20;;
26106;SDS011;13866;50.748;12.630;2022-09-20T15:51:23;3.00;;;3.00;;
26106;SDS011;13866;50.748;12.630;2022-09-20T15:53:55;7.17;;;2.73;;
26106;SDS011;13866;50.748;12.630;2022-09-20T15:56:24;3.13;;;2.53;;
26106;SDS011;13866;50.748;12.630;2022-09-20T15:58:52;3.57;;;3.40;;
26106;SDS011;13866;50.748;12.630;2022-09-20T16:01:23;3.20;;;3.10;;
26106;SDS011;13866;50.748;12.630;2022-09-20T16:03:50;2.97;;;2.97;;
26106;SDS011;13866;50.748;12.630;2022-09-20T16:06:15;2.80;;;2.80;;
26106;SDS011;13866;50.748;12.630;2022-09-20T16:08:41;3.40;;;3.03;;
26106;SDS011;13866;50.748;12.630;2022-09-20T16:11:07;4.10;;;3.93;;
26106;SDS011;13866;50.748;12.630;2022-09-20T16:13:36;6.40;;;2.90;;
26106;SDS011;13866;50.748;12.630;2022-09-20T16:16:02;3.57;;;3.37;;
26106;SDS011;13866;50.748;12.630;2022-09-20T16:18:29;3.30;;;2.47;;
26106;SDS011;13866;50.748;12.630;2022-09-20T16:21:14;3.57;;;3.37;;
26106;SDS011;13866;50.748;12.630;2022-09-20T16:23:44;5.60;;;3.30;;
26106;SDS011;13866;50.748;12.630;2022-09-20T16:26:12;3.47;;;3.37;;
26106;SDS011;13866;50.748;12.630;2022-09-20T16:28:40;4.27;;;3.97;;
26106;SDS011;13866;50.748;12.630;2022-09-20T16:31:24;3.50;;;3.30;;
26106;SDS011;13866;50.748;12.630;2022-09-20T16:33:59;2.57;;;2.47;;
26106;SDS011;13866;50.748;12.630;2022-09-20T16:36:34;5.60;;;2.60;;
26106;SDS011;13866;50.748;12.630;2022-09-20T16:39:00;2.23;;;2.23;;
26106;SDS011;13866;50.748;12.630;2022-09-20T16:41:26;2.60;;;2.50;;
26106;SDS011;13866;50.748;12.630;2022-09-20T16:43:52;3.40;;;2.43;;
26106;SDS011;13866;50.748;12.630;2022-09-20T16:46:22;1.90;;;1.90;;
26106;SDS011;13866;50.748;12.630;2022-09-20T16:48:51;3.23;;;3.03;;
26106;SDS011;13866;50.748;12.630;2022-09-20T16:51:19;3.23;;;2.83;;
26106;SDS011;13866;50.748;12.630;2022-09-20T16:53:48;2.30;;;2.20;;
26106;SDS011;13866;50.748;12.630;2022-09-20T16:56:23;3.13;;;2.33;;
26106;SDS011;13866;50.748;12.630;2022-09-20T16:58:52;2.53;;;2.43;;
26106;SDS011;13866;50.748;12.630;2022-09-20T17:01:18;2.13;;;1.90;;
26106;SDS011;13866;50.748;12.630;2022-09-20T17:03:44;2.43;;;2.10;;
26106;SDS011;13866;50.748;12.630;2022-09-20T17:06:11;2.40;;;2.20;;
26106;SDS011;13866;50.748;12.630;2022-09-20T17:08:38;2.13;;;2.00;;
26106;SDS011;13866;50.748;12.630;2022-09-20T17:11:11;1.90;;;1.80;;
26106;SDS011;13866;50.748;12.630;2022-09-20T17:13:39;2.90;;;2.80;;
26106;SDS011;13866;50.748;12.630;2022-09-20T17:16:10;2.90;;;2.80;;
26106;SDS011;13866;50.748;12.630;2022-09-20T17:18:38;2.80;;;2.80;;
26106;SDS011;13866;50.748;12.630;2022-09-20T17:21:08;2.90;;;2.90;;
26106;SDS011;13866;50.748;12.630;2022-09-20T17:23:33;4.17;;;3.97;;
26106;SDS011;13866;50.748;12.630;2022-09-20T17:26:00;4.00;;;2.97;;
26106;SDS011;13866;50.748;12.630;2022-09-20T17:28:36;2.87;;;2.60;;
26106;SDS011;13866;50.748;12.630;2022-09-20T17:31:03;3.70;;;3.50;;
26106;SDS011;13866;50.748;12.630;2022-09-20T17:33:30;4.07;;;3.87;;
26106;SDS011;13866;50.748;12.630;2022-09-20T17:35:57;5.83;;;4.53;;
26106;SDS011;13866;50.748;12.630;2022-09-20T17:38:27;5.80;;;5.60;;
26106;SDS011;13866;50.748;12.630;2022-09-20T17:41:09;6.30;;;6.00;;
26106;SDS011;13866;50.748;12.630;2022-09-20T17:43:37;7.03;;;6.40;;
26106;SDS011;13866;50.748;12.630;2022-09-20T17:46:07;7.27;;;6.97;;
26106;SDS011;13866;50.748;12.630;2022-09-20T17:48:39;4.20;;;3.80;;
26106;SDS011;13866;50.748;12.630;2022-09-20T17:51:06;3.50;;;3.30;;
26106;SDS011;13866;50.748;12.630;2022-09-20T17:53:33;4.67;;;4.23;;
26106;SDS011;13866;50.748;12.630;2022-09-20T17:56:00;3.83;;;3.27;;
26106;SDS011;13866;50.748;12.630;2022-09-20T17:58:27;3.30;;;3.10;;
26106;SDS011;13866;50.748;12.630;2022-09-20T18:00:53;2.60;;;2.50;;
26106;SDS011;13866;50.748;12.630;2022-09-20T18:03:26;7.50;;;2.80;;
26106;SDS011;13866;50.748;12.630;2022-09-20T18:05:51;2.93;;;2.73;;
26106;SDS011;13866;50.748;12.630;2022-09-20T18:08:17;4.03;;;3.70;;
26106;SDS011;13866;50.748;12.630;2022-09-20T18:10:52;5.40;;;3.50;;
26106;SDS011;13866;50.748;12.630;2022-09-20T18:13:19;3.50;;;3.40;;
26106;SDS011;13866;50.748;12.630;2022-09-20T18:15:44;3.10;;;2.90;;
26106;SDS011;13866;50.748;12.630;2022-09-20T18:18:10;3.30;;;3.03;;
26106;SDS011;13866;50.748;12.630;2022-09-20T18:20:35;3.13;;;2.90;;
26106;SDS011;13866;50.748;12.630;2022-09-20T18:23:01;3.57;;;3.37;;
26106;SDS011;13866;50.748;12.630;2022-09-20T18:25:27;3.40;;;3.30;;
26106;SDS011;13866;50.748;12.630;2022-09-20T18:27:53;3.70;;;3.50;;
26106;SDS011;13866;50.748;12.630;2022-09-20T18:30:18;3.80;;;3.70;;
26106;SDS011;13866;50.748;12.630;2022-09-20T18:32:48;2.90;;;2.80;;
26106;SDS011;13866;50.748;12.630;2022-09-20T18:35:14;3.63;;;3.53;;
26106;SDS011;13866;50.748;12.630;2022-09-20T18:37:40;3.57;;;3.37;;
26106;SDS011;13866;50.748;12.630;2022-09-20T18:40:05;4.00;;;3.80;;